Flight Track Log - Related Links

Times and Time Zones

All times are in EDT time to prevent confusion due to time zone crossing. See the SWA378 flight status page for this flight to view local times or setup timezone preferences in your user account.

Time Position Orientation Groundspeed Altitude Reporting Facility
EDT Latitude Longitude Course Direction KTS MPH feet Rate Location/Type
Mon 06:49:55 PM 33.6328 -84.4731 101° East 447 514 2,700  Level Atlanta Center
Mon 06:50:20 PM 33.6167 -84.5000 234° Southwest 213 245 4,300 3,495 Climbing Atlanta TRACON
Mon 06:51:26 PM 33.5833 -84.5833 244° Southwest 288 331 8,000 2,540 Climbing Atlanta TRACON
Mon 06:53:55 PM 33.4556 -84.4247 134° Southeast 256 295 13,400 2,124 Climbing Atlanta Center
Mon 06:54:55 PM 33.4581 -84.2903 89° East 347 399 15,400 2,300 Climbing Atlanta Center
Mon 06:55:00 PM 33.6527 -83.6495 101° East  Level FlightAware Approximate
Mon 06:55:55 PM 33.5042 -84.1608 67° East 382 440 18,000  Level Atlanta Center
Mon 06:56:55 PM 33.5606 -84.0289 63° Northeast 413 475 20,400 2,600 Climbing Atlanta Center
Mon 06:57:55 PM 33.6106 -83.8892 67° East 439 505 23,200 2,450 Climbing Atlanta Center
Mon 06:58:55 PM 33.6414 -83.7369 76° East 461 531 25,300 2,150 Climbing Atlanta Center
Mon 06:59:55 PM 33.6847 -83.5819 71° East 473 544 27,500 2,350 Climbing Atlanta Center
Mon 07:00:55 PM 33.7406 -83.4442 64° Northeast 467 537 30,000 2,300 Climbing Atlanta Center
Mon 07:01:55 PM 33.7961 -83.3039 64° Northeast 460 529 32,100 1,650 Climbing Atlanta Center
Mon 07:02:55 PM 33.8517 -83.1658 64° Northeast 455 524 33,300 1,250 Climbing Atlanta Center
Mon 07:03:55 PM 33.9131 -83.0175 63° Northeast 473 544 34,600 1,650 Climbing Atlanta Center
Mon 07:04:55 PM 33.9683 -82.8742 65° Northeast 473 544 36,600 1,450 Climbing Atlanta Center
Mon 07:05:55 PM 34.0253 -82.7306 64° Northeast 468 539 37,500 850 Climbing Atlanta Center
Mon 07:06:55 PM 34.0758 -82.6017 65° Northeast 463 533 38,300 750 Climbing Atlanta Center
Mon 07:07:55 PM 34.1386 -82.4450 64° Northeast 469 540 39,000 350 Climbing Atlanta Center
Mon 07:08:55 PM 34.1953 -82.3008 65° Northeast 469 540 39,000  Level Atlanta Center
Mon 07:09:55 PM 34.2514 -82.1539 65° Northeast 469 540 39,000  Level Atlanta Center
Mon 07:10:55 PM 34.3203 -82.0217 58° Northeast 469 540 39,000  Level Atlanta Center
Mon 07:11:55 PM 34.3869 -81.8892 59° Northeast 464 534 39,000  Level Atlanta Center
Mon 07:12:55 PM 34.4533 -81.7514 60° Northeast 464 534 39,000  Level Atlanta Center
Mon 07:13:55 PM 34.5197 -81.6161 59° Northeast 459 528 39,000  Level Atlanta Center
Mon 07:14:55 PM 34.5858 -81.4803 59° Northeast 459 528 39,000  Level Atlanta Center
Mon 07:15:55 PM 34.6517 -81.3494 59° Northeast 459 528 39,000  Level Atlanta Center
Mon 07:16:55 PM 34.7217 -81.2108 58° Northeast 464 534 39,000  Level Atlanta Center
Mon 07:17:55 PM 34.7894 -81.0694 60° Northeast 476 548 39,000  Level Atlanta Center
Mon 07:18:55 PM 34.8589 -80.9253 60° Northeast 482 555 39,000  Level Atlanta Center
Mon 07:19:55 PM 34.9281 -80.7833 59° Northeast 482 555 39,000  Level Atlanta Center
Mon 07:20:55 PM 34.9972 -80.6411 59° Northeast 487 560 39,000  Level Atlanta Center
Mon 07:21:55 PM 35.0703 -80.4936 59° Northeast 493 567 39,000 -150 Level Atlanta Center
Mon 07:22:55 PM 35.1311 -80.3639 60° Northeast 493 567 38,700 -642 Descending Atlanta Center
Mon 07:25:02 PM 35.2778 -80.0547 60° Northeast 476 548 37,000 -543 Descending Washington Center
Mon 07:26:03 PM 35.3456 -79.9158 59° Northeast 469 540 37,000  Level Washington Center
Mon 07:27:01 PM 35.4131 -79.7742 60° Northeast 469 540 37,000  Level Washington Center
Mon 07:28:01 PM 35.4725 -79.6242 64° Northeast 474 545 37,000 -50 Level Washington Center
Mon 07:29:01 PM 35.5175 -79.4606 71° East 488 562 36,900 -545 Descending Washington Center
Mon 07:30:02 PM 35.5603 -79.2994 72° East 495 570 35,900 -934 Descending Washington Center
Mon 07:31:03 PM 35.6028 -79.1403 72° East 490 564 35,000 -992 Descending Washington Center
Mon 07:32:03 PM 35.6469 -78.9814 71° East 490 564 33,900 -966 Descending Washington Center
Mon 07:33:01 PM 35.6819 -78.8525 71° East 490 564 33,100 -908 Descending Washington Center
Mon 07:34:02 PM 35.7281 -78.6803 72° East 490 564 32,100 -1,033 Descending Washington Center
Mon 07:35:03 PM 35.7675 -78.5231 73° East 490 564 31,000 -1,068 Descending Washington Center
Mon 07:36:00 PM 35.8067 -78.3733 72° East 473 544 30,000 -1,412 Descending Washington Center
Mon 07:37:02 PM 35.8433 -78.2311 72° East 454 522 28,200 -2,016 Descending Washington Center
Mon 07:38:02 PM 35.8819 -78.0864 72° East 440 506 25,900 -2,579 Descending Washington Center
Mon 07:39:03 PM 35.9203 -77.9389 72° East 435 501 23,000 -2,492 Descending Washington Center
Mon 07:40:00 PM 35.9564 -77.7886 73° East 441 507 21,000 -1,008 Descending Washington Center
Mon 07:41:02 PM 36.0028 -77.6511 67° East 441 507 21,000  Level Washington Center
Mon 07:42:03 PM 36.0653 -77.5242 59° Northeast 435 501 21,000  Level Washington Center
Mon 07:43:03 PM 36.1278 -77.3947 59° Northeast 429 494 21,000  Level Washington Center
Mon 07:44:01 PM 36.1839 -77.2672 61° Northeast 429 494 21,000 -1,109 Level Washington Center
Mon 07:45:02 PM 36.2528 -77.1219 60° Northeast 429 494 18,800 -2,182 Descending Washington Center
Mon 07:45:51 PM 36.2978 -77.0300 59° Northeast 417 480 17,000 -2,390 Descending Washington Center
Mon 07:47:00 PM 36.3681 -76.8817 59° Northeast 413 475 14,100 -2,391 Descending Washington Center
Mon 07:48:04 PM 36.4400 -76.7900 46° Northeast 370 426 11,700 -1,934 Descending Washington Center
Mon 07:49:01 PM 36.5014 -76.6953 51° Northeast 365 420 10,200 -1,617 Descending Washington Center
Mon 07:49:59 PM 36.5542 -76.6261 46° Northeast 295 339 8,600 -1,866 Descending Washington Center
Mon 07:51:00 PM 36.6092 -76.5417 51° Northeast 297 342 6,500 -1,983 Descending Washington Center
Mon 07:52:00 PM 36.6619 -76.4644 50° Northeast 285 328 4,600 -1,388 Descending Washington Center
Mon 07:53:01 PM 36.6997 -76.4106 49° Northeast 274 315 3,700 -1,230 Descending Washington Center
Mon 07:54:02 PM 36.7525 -76.3386 48° Northeast 247 284 2,100 -857 Descending Washington Center
Mon 07:55:00 PM 36.7944 -76.2975 38° Northeast 212 244 2,000 -328 Descending Washington Center
Mon 07:56:10 PM 36.8364 -76.2614 35° Northeast 151 174 1,400 -701 Descending Washington Center
Mon 07:57:17 PM 36.8700 -76.2281 38° Northeast 141 162 400 -896 Descending Washington Center

Login

Don't have an account? Register now (free) for customized features, flight alerts, and more!